Time;durP1;ratioP1;P1;durP2;ratioP2;P2;SDS_P1;SDS_P2;PMS_P1;PMS_P2;Temp;Humidity;BMP_temperature;BMP_pressure;BME280_temperature;BME280_humidity;BME280_pressure;Samples;Min_cycle;Max_cycle;Signal;HPM_P1;HPM_P2
2023/01/01 00:01:30;;;;;;;9.07;1.42;;;27.20;99.90;;;;;;5033551;28;20201;-82
2023/01/01 00:04:01;;;;;;;8.85;1.55;;;27.10;99.90;;;;;;5034638;28;20281;-83
2023/01/01 00:06:32;;;;;;;5.65;0.98;;;27.20;99.90;;;;;;5025609;28;20286;-86
2023/01/01 00:11:49;;;;;;;8.77;1.35;;;26.80;99.90;;;;;;5033099;28;20217;-85
2023/01/01 00:14:20;;;;;;;5.13;1.20;;;26.40;99.90;;;;;;5031668;28;20202;-85
2023/01/01 00:16:55;;;;;;;9.45;1.30;;;26.50;99.90;;;;;;5034840;28;20281;-84
2023/01/01 00:19:26;;;;;;;6.90;1.35;;;26.20;99.90;;;;;;5033879;28;20280;-87
2023/01/01 00:21:57;;;;;;;8.65;1.27;;;26.00;99.90;;;;;;5033364;28;20282;-82
2023/01/01 00:24:27;;;;;;;8.15;1.30;;;25.90;99.90;;;;;;5035619;28;20321;-84
2023/01/01 00:26:58;;;;;;;7.97;1.50;;;25.90;99.90;;;;;;5035477;28;20780;-81
2023/01/01 00:29:29;;;;;;;9.05;1.17;;;26.00;99.90;;;;;;5035472;28;20277;-82
2023/01/01 00:32:02;;;;;;;8.02;1.30;;;26.10;99.90;;;;;;5034227;28;20280;-82
2023/01/01 00:34:32;;;;;;;8.38;1.40;;;26.40;99.90;;;;;;5033690;28;20302;-81
2023/01/01 00:37:07;;;;;;;7.60;1.27;;;26.40;99.90;;;;;;5015117;28;20205;-86
2023/01/01 00:39:38;;;;;;;4.30;0.85;;;26.50;99.90;;;;;;5012385;28;20245;-84
2023/01/01 00:42:09;;;;;;;5.60;1.00;;;26.30;99.90;;;;;;5025627;28;20214;-81
2023/01/01 00:44:39;;;;;;;6.40;1.08;;;26.30;99.90;;;;;;5034700;28;20234;-83
2023/01/01 00:47:12;;;;;;;5.55;1.40;;;26.50;99.90;;;;;;5034649;28;20693;-81
2023/01/01 00:49:43;;;;;;;5.32;1.10;;;26.90;99.90;;;;;;5024846;28;20198;-82
2023/01/01 00:52:14;;;;;;;6.00;1.25;;;27.10;99.90;;;;;;5032606;28;20622;-81
2023/01/01 00:54:44;;;;;;;7.70;1.30;;;26.90;99.90;;;;;;5015386;28;20282;-81
2023/01/01 00:57:16;;;;;;;6.90;1.25;;;26.90;99.90;;;;;;5015369;28;20753;-81
2023/01/01 00:59:48;;;;;;;4.93;1.00;;;26.70;99.90;;;;;;5015055;28;20521;-86
2023/01/01 01:02:20;;;;;;;7.47;1.35;;;26.80;99.90;;;;;;5015255;28;20198;-81
2023/01/01 01:04:51;;;;;;;7.18;1.33;;;27.10;99.90;;;;;;5015214;28;20262;-85
2023/01/01 01:07:22;;;;;;;8.40;1.38;;;26.90;99.90;;;;;;5015075;28;20326;-79
2023/01/01 01:09:53;;;;;;;4.70;1.15;;;26.70;99.90;;;;;;5017616;28;20218;-83
2023/01/01 01:12:24;;;;;;;5.78;1.10;;;26.80;99.90;;;;;;5034224;28;20190;-81
2023/01/01 01:14:54;;;;;;;9.20;1.23;;;27.30;99.90;;;;;;5033654;28;20277;-83
2023/01/01 01:17:28;;;;;;;8.02;1.52;;;27.40;99.90;;;;;;5034738;28;20285;-84
2023/01/01 01:19:59;;;;;;;4.80;0.90;;;27.10;99.90;;;;;;5034604;28;20281;-79
2023/01/01 01:22:29;;;;;;;5.07;1.20;;;27.20;99.90;;;;;;5034521;28;20704;-81
2023/01/01 01:25:00;;;;;;;5.55;1.17;;;26.80;99.90;;;;;;5034111;28;20216;-83
2023/01/01 01:27:31;;;;;;;5.03;1.20;;;26.60;99.90;;;;;;5032673;28;20214;-82
2023/01/01 01:30:02;;;;;;;6.57;1.00;;;26.60;99.90;;;;;;5034346;28;20202;-80
2023/01/01 01:32:35;;;;;;;7.88;1.08;;;26.60;99.90;;;;;;5033910;28;20281;-80
2023/01/01 01:35:06;;;;;;;5.80;1.10;;;26.50;99.90;;;;;;5033259;28;20199;-83
2023/01/01 01:37:36;;;;;;;5.45;1.42;;;26.50;99.90;;;;;;5034162;28;20194;-80
2023/01/01 01:40:08;;;;;;;5.70;1.10;;;26.30;99.90;;;;;;5027793;28;20230;-81
2023/01/01 01:42:39;;;;;;;6.35;1.20;;;26.10;99.90;;;;;;5023345;28;20324;-78
2023/01/01 01:45:11;;;;;;;7.00;1.70;;;26.10;99.90;;;;;;5064207;22;20244;-83
2023/01/01 01:47:51;;;;;;;5.40;0.98;;;26.10;99.90;;;;;;5042918;28;20218;-82
2023/01/01 01:50:28;;;;;;;8.18;1.40;;;26.00;99.90;;;;;;5055422;28;20193;-82
2023/01/01 01:53:05;;;;;;;6.53;1.15;;;25.90;99.90;;;;;;5054109;28;20225;-82
2023/01/01 01:55:38;;;;;;;9.23;1.40;;;25.80;99.90;;;;;;5046159;28;20205;-80
2023/01/01 01:58:10;;;;;;;4.10;1.23;;;25.80;99.90;;;;;;5052550;28;20255;-79
2023/01/01 02:00:41;;;;;;;8.18;1.38;;;25.60;99.90;;;;;;5049856;28;20208;-82
2023/01/01 02:03:16;;;;;;;3.38;1.00;;;25.50;99.90;;;;;;5057517;28;20276;-78
2023/01/01 02:05:48;;;;;;;7.18;1.40;;;25.40;99.90;;;;;;5056380;28;20279;-79
2023/01/01 02:08:19;;;;;;;4.93;0.98;;;25.20;99.90;;;;;;5043497;28;20217;-79
2023/01/01 02:10:50;;;;;;;7.60;1.20;;;25.20;99.90;;;;;;5073691;28;20189;-79
2023/01/01 02:13:21;;;;;;;8.05;1.80;;;25.20;99.90;;;;;;5071247;28;20311;-79
2023/01/01 02:16:01;;;;;;;7.45;1.23;;;25.20;99.90;;;;;;5064907;28;20188;-80
2023/01/01 02:18:40;;;;;;;6.75;1.13;;;25.20;99.90;;;;;;5049740;28;20212;-78
2023/01/01 02:21:16;;;;;;;7.72;1.45;;;25.20;99.90;;;;;;5065863;28;20276;-80
2023/01/01 02:24:13;;;;;;;7.72;1.40;;;25.20;99.90;;;;;;5051982;28;20285;-80
2023/01/01 02:26:54;;;;;;;7.03;1.60;;;25.20;99.90;;;;;;5052667;28;20284;-79
2023/01/01 02:29:41;;;;;;;6.72;1.27;;;25.20;99.90;;;;;;5056176;28;20237;-77
2023/01/01 02:32:15;;;;;;;8.35;1.35;;;25.20;99.90;;;;;;5053794;28;20306;-79
2023/01/01 02:34:50;;;;;;;7.53;1.30;;;25.20;99.90;;;;;;5055853;28;20622;-80
2023/01/01 02:37:23;;;;;;;6.80;1.70;;;25.20;99.90;;;;;;5052764;28;20199;-80
2023/01/01 02:39:58;;;;;;;5.75;1.48;;;25.10;99.90;;;;;;5052138;28;20205;-80
2023/01/01 02:42:31;;;;;;;6.68;1.40;;;25.20;99.90;;;;;;5053248;28;20272;-79
2023/01/01 02:45:04;;;;;;;6.90;1.10;;;25.30;99.90;;;;;;5050934;28;20340;-81
2023/01/01 02:47:34;;;;;;;7.15;1.30;;;25.40;99.90;;;;;;5051317;28;20296;-78
2023/01/01 02:50:10;;;;;;;7.88;1.30;;;25.60;99.90;;;;;;5049582;28;20197;-79
2023/01/01 02:53:18;;;;;;;10.68;1.40;;;25.70;99.90;;;;;;5041746;28;20281;-81
2023/01/01 02:56:00;;;;;;;7.93;1.20;;;25.70;99.90;;;;;;5036361;28;20660;-81
2023/01/01 03:01:36;;;;;;;6.90;1.38;;;25.70;99.90;;;;;;5050326;28;20208;-78
2023/01/01 03:04:12;;;;;;;5.10;1.30;;;25.60;99.90;;;;;;5050072;28;20194;-79
2023/01/01 03:06:52;;;;;;;9.98;1.42;;;25.60;99.90;;;;;;5051988;28;20263;-83
2023/01/01 03:09:29;;;;;;;7.13;1.27;;;25.70;99.90;;;;;;5052215;28;20215;-80
2023/01/01 03:12:03;;;;;;;7.07;1.20;;;25.90;99.90;;;;;;5052750;28;20616;-79
2023/01/01 03:14:43;;;;;;;6.30;1.30;;;25.70;99.90;;;;;;5041038;28;20211;-79
2023/01/01 03:17:20;;;;;;;6.05;1.00;;;25.60;99.90;;;;;;5053059;28;20280;-82
2023/01/01 03:19:53;;;;;;;5.13;1.05;;;25.70;99.90;;;;;;5053160;28;20244;-79
2023/01/01 03:22:28;;;;;;;9.07;1.65;;;25.70;99.90;;;;;;5052543;28;20185;-80
2023/01/01 03:25:03;;;;;;;8.43;1.20;;;25.70;99.90;;;;;;5041260;28;20228;-80
2023/01/01 03:27:39;;;;;;;8.45;1.45;;;25.60;99.90;;;;;;5055419;28;20232;-79
2023/01/01 03:30:12;;;;;;;5.88;1.38;;;25.60;99.90;;;;;;5054777;28;20276;-81
2023/01/01 03:33:04;;;;;;;5.93;1.20;;;25.70;99.90;;;;;;5050004;28;20202;-81
2023/01/01 03:35:39;;;;;;;5.47;1.23;;;26.10;99.90;;;;;;5056617;28;20186;-80
2023/01/01 03:38:15;;;;;;;7.72;1.67;;;26.30;99.90;;;;;;5053283;28;20208;-79
2023/01/01 03:40:50;;;;;;;6.38;1.10;;;26.40;99.90;;;;;;5052162;28;20204;-80
2023/01/01 03:43:27;;;;;;;7.15;1.25;;;26.60;99.90;;;;;;5054244;28;20279;-81
2023/01/01 03:46:00;;;;;;;9.95;1.40;;;26.50;99.90;;;;;;5054768;28;20225;-83
2023/01/01 03:48:54;;;;;;;6.40;1.23;;;26.50;99.90;;;;;;5052443;28;20219;-78
2023/01/01 03:51:28;;;;;;;7.32;1.50;;;26.40;99.90;;;;;;5054514;28;20201;-77
2023/01/01 03:54:03;;;;;;;4.22;1.10;;;26.10;99.90;;;;;;5053810;28;20204;-78
2023/01/01 03:56:41;;;;;;;6.18;1.63;;;26.30;99.90;;;;;;5054653;28;20199;-83
2023/01/01 03:59:17;;;;;;;11.05;1.73;;;26.30;99.90;;;;;;5054273;28;20201;-82
2023/01/01 04:01:51;;;;;;;6.97;1.50;;;26.30;99.90;;;;;;5040363;28;20200;-80
2023/01/01 04:04:24;;;;;;;8.07;1.50;;;26.30;99.90;;;;;;5039622;28;20351;-86
2023/01/01 04:06:56;;;;;;;9.48;1.58;;;26.30;99.90;;;;;;5054708;28;20233;-85
2023/01/01 04:09:32;;;;;;;10.55;1.70;;;26.40;99.90;;;;;;5052291;28;20296;-81
2023/01/01 04:12:03;;;;;;;11.45;1.58;;;26.60;99.90;;;;;;5055765;28;20199;-78
2023/01/01 04:14:35;;;;;;;9.38;1.75;;;26.70;99.90;;;;;;5053519;28;20631;-82
2023/01/01 04:17:07;;;;;;;6.35;1.42;;;26.70;99.90;;;;;;5054329;28;20728;-85
2023/01/01 04:19:40;;;;;;;7.40;1.50;;;26.70;99.90;;;;;;5043703;28;20228;-77
2023/01/01 04:22:11;;;;;;;9.15;1.77;;;26.50;99.90;;;;;;5052792;28;20536;-80
2023/01/01 04:24:42;;;;;;;8.52;1.50;;;26.50;99.90;;;;;;5053565;28;20724;-80
2023/01/01 04:27:13;;;;;;;5.70;1.40;;;26.30;99.90;;;;;;5054733;28;20561;-80
2023/01/01 04:29:43;;;;;;;5.72;1.40;;;26.30;99.90;;;;;;5053256;28;20341;-78
2023/01/01 04:32:14;;;;;;;8.15;1.50;;;26.40;99.90;;;;;;5051603;28;20290;-78
2023/01/01 04:34:47;;;;;;;8.30;1.48;;;26.20;99.90;;;;;;5053250;28;20276;-81
2023/01/01 04:37:18;;;;;;;7.05;1.33;;;26.20;99.90;;;;;;5052105;28;20280;-80
2023/01/01 04:39:49;;;;;;;7.78;1.73;;;26.10;99.90;;;;;;5053637;28;20288;-84
2023/01/01 04:42:19;;;;;;;7.88;1.30;;;26.00;99.90;;;;;;5055009;28;20272;-80
2023/01/01 04:44:50;;;;;;;8.82;1.50;;;26.00;99.90;;;;;;5054768;28;20229;-78
2023/01/01 04:47:21;;;;;;;8.90;1.77;;;25.90;99.90;;;;;;5051318;28;20224;-84
2023/01/01 04:49:54;;;;;;;7.75;1.48;;;25.90;99.90;;;;;;5049455;28;20218;-82
2023/01/01 04:52:24;;;;;;;9.70;1.77;;;25.90;99.90;;;;;;5051573;28;20272;-78
2023/01/01 04:54:55;;;;;;;8.63;1.50;;;26.00;99.90;;;;;;5049538;28;20289;-79
2023/01/01 04:57:26;;;;;;;10.30;1.38;;;26.10;99.90;;;;;;5051963;28;20200;-79
2023/01/01 04:59:57;;;;;;;7.35;1.58;;;26.10;99.90;;;;;;5052945;28;20294;-78
2023/01/01 05:02:28;;;;;;;10.00;1.75;;;26.00;99.90;;;;;;5052558;28;20678;-80
2023/01/01 05:05:00;;;;;;;8.85;1.55;;;26.00;99.90;;;;;;5053072;28;20644;-78
2023/01/01 05:07:31;;;;;;;11.25;1.50;;;26.00;99.90;;;;;;5055423;28;20616;-79
2023/01/01 05:10:02;;;;;;;7.70;1.35;;;26.00;99.90;;;;;;5055151;28;20294;-78
2023/01/01 05:12:33;;;;;;;7.97;1.50;;;25.90;99.90;;;;;;5054872;28;20276;-81
2023/01/01 05:15:04;;;;;;;5.13;1.30;;;25.90;99.90;;;;;;5054766;28;20671;-78
2023/01/01 05:17:34;;;;;;;6.97;1.15;;;25.90;99.90;;;;;;5054693;28;20564;-78
2023/01/01 05:20:08;;;;;;;8.95;1.55;;;25.90;99.90;;;;;;5054473;28;20198;-79
2023/01/01 05:22:38;;;;;;;4.70;1.10;;;25.80;99.90;;;;;;5054680;28;20204;-79
2023/01/01 05:25:10;;;;;;;7.65;1.40;;;25.70;99.90;;;;;;5054585;28;20533;-81
2023/01/01 05:27:40;;;;;;;5.45;1.30;;;25.80;99.90;;;;;;5054514;28;20286;-79
2023/01/01 05:30:12;;;;;;;9.23;1.45;;;25.80;99.90;;;;;;5054385;28;20583;-77
2023/01/01 05:32:43;;;;;;;7.03;1.27;;;25.70;99.90;;;;;;5054447;28;20186;-80
2023/01/01 05:35:15;;;;;;;8.80;1.52;;;25.60;99.90;;;;;;5054217;28;20204;-78
2023/01/01 05:37:46;;;;;;;8.18;1.20;;;25.60;99.90;;;;;;5054211;28;20196;-80
2023/01/01 05:40:17;;;;;;;9.65;1.10;;;25.50;99.90;;;;;;5054260;28;20281;-80
2023/01/01 05:42:49;;;;;;;9.68;1.67;;;25.60;99.90;;;;;;5047287;28;20209;-80
2023/01/01 05:45:20;;;;;;;7.47;1.52;;;25.60;99.90;;;;;;5053989;28;20751;-82
2023/01/01 05:47:51;;;;;;;8.05;1.52;;;25.50;99.90;;;;;;5053830;28;20276;-78
2023/01/01 05:50:24;;;;;;;7.18;1.45;;;25.50;99.90;;;;;;5053613;28;20221;-81
2023/01/01 05:52:54;;;;;;;7.47;1.35;;;25.40;99.90;;;;;;5054369;28;20640;-86
2023/01/01 05:55:25;;;;;;;9.05;1.55;;;25.30;99.90;;;;;;5054019;28;20185;-83
2023/01/01 05:57:56;;;;;;;6.18;1.30;;;25.30;99.90;;;;;;5054036;28;20272;-83
2023/01/01 06:00:27;;;;;;;6.80;1.20;;;25.20;99.90;;;;;;5048107;28;20204;-81
2023/01/01 06:02:58;;;;;;;8.07;1.63;;;25.20;99.90;;;;;;5054014;28;20280;-80
2023/01/01 06:05:31;;;;;;;9.50;1.55;;;25.20;99.90;;;;;;5054092;28;20720;-79
2023/01/01 06:08:01;;;;;;;6.97;1.55;;;25.20;99.90;;;;;;5053909;28;20272;-82
2023/01/01 06:10:32;;;;;;;9.55;1.85;;;25.20;99.90;;;;;;5054122;28;20222;-80
2023/01/01 06:13:03;;;;;;;6.95;1.60;;;25.20;99.90;;;;;;5053886;28;20194;-81
2023/01/01 06:15:34;;;;;;;10.40;1.75;;;25.10;99.90;;;;;;5053715;28;20285;-80
2023/01/01 06:18:05;;;;;;;10.45;1.65;;;25.10;99.90;;;;;;5050285;28;20276;-78
2023/01/01 06:20:37;;;;;;;8.82;1.52;;;25.00;99.90;;;;;;5053570;28;20201;-80
2023/01/01 06:23:08;;;;;;;7.60;1.60;;;25.00;99.90;;;;;;5053579;28;20280;-79
2023/01/01 06:25:39;;;;;;;6.00;1.33;;;25.10;99.90;;;;;;5053476;28;20186;-78
2023/01/01 06:28:09;;;;;;;6.93;1.52;;;25.00;99.90;;;;;;5053530;28;20653;-77
2023/01/01 06:30:40;;;;;;;6.13;1.73;;;25.00;99.90;;;;;;5053350;28;20217;-79
2023/01/01 06:33:11;;;;;;;10.75;1.48;;;24.90;99.90;;;;;;5053281;28;20299;-79
2023/01/01 06:35:44;;;;;;;9.00;1.52;;;24.90;99.90;;;;;;5053386;28;20739;-78
2023/01/01 06:38:14;;;;;;;5.55;1.38;;;24.70;99.90;;;;;;5053356;28;20259;-80
2023/01/01 06:40:45;;;;;;;10.82;2.30;;;24.60;99.90;;;;;;5053258;28;20196;-79
2023/01/01 06:43:16;;;;;;;9.43;1.55;;;24.60;99.90;;;;;;5045718;28;20217;-78
2023/01/01 06:45:47;;;;;;;10.05;1.45;;;24.60;99.90;;;;;;5044899;28;20229;-79
2023/01/01 06:48:17;;;;;;;8.52;1.48;;;24.80;99.90;;;;;;5053115;28;20189;-79
2023/01/01 06:50:50;;;;;;;8.40;1.40;;;24.80;99.90;;;;;;5053189;28;20225;-78
2023/01/01 06:53:21;;;;;;;7.90;1.70;;;24.80;99.90;;;;;;5053173;28;20272;-77
2023/01/01 06:55:52;;;;;;;7.85;1.50;;;24.80;99.90;;;;;;5053253;28;20280;-78
2023/01/01 06:58:23;;;;;;;8.98;1.73;;;24.80;99.90;;;;;;5053254;28;20251;-78
2023/01/01 07:00:53;;;;;;;7.70;1.45;;;24.80;99.90;;;;;;5056036;28;20727;-77
2023/01/01 07:03:24;;;;;;;7.63;1.58;;;24.70;99.90;;;;;;5053985;28;20280;-78
2023/01/01 07:05:57;;;;;;;6.60;1.60;;;24.60;99.90;;;;;;5057590;28;20236;-79
2023/01/01 07:08:27;;;;;;;6.40;1.50;;;24.50;99.90;;;;;;5057152;28;20219;-79
2023/01/01 07:10:58;;;;;;;7.15;1.45;;;24.40;99.90;;;;;;5057170;28;20208;-78
2023/01/01 07:13:30;;;;;;;6.18;1.70;;;24.50;99.90;;;;;;5057024;28;20185;-77
2023/01/01 07:16:01;;;;;;;9.10;2.28;;;24.50;99.90;;;;;;5056800;28;20189;-78
2023/01/01 07:18:32;;;;;;;7.70;1.90;;;24.60;99.90;;;;;;5056963;28;20272;-78
2023/01/01 07:21:06;;;;;;;10.05;2.00;;;24.70;99.90;;;;;;5055993;28;20200;-81
2023/01/01 07:23:37;;;;;;;8.07;1.83;;;24.70;99.90;;;;;;5055798;28;20280;-79
2023/01/01 07:26:08;;;;;;;10.07;1.77;;;24.50;99.90;;;;;;5056912;28;20640;-77
2023/01/01 07:28:39;;;;;;;9.90;1.85;;;24.40;99.90;;;;;;5056750;28;20200;-77
2023/01/01 07:31:10;;;;;;;11.00;2.00;;;24.40;99.90;;;;;;5056513;28;20190;-79
2023/01/01 07:33:41;;;;;;;8.45;2.03;;;24.40;99.90;;;;;;5056673;28;20208;-78
2023/01/01 07:36:14;;;;;;;11.77;2.15;;;24.30;99.90;;;;;;5056654;28;20281;-76
2023/01/01 07:38:45;;;;;;;9.68;2.15;;;24.30;99.90;;;;;;5056591;28;20619;-77
2023/01/01 07:41:16;;;;;;;12.18;2.30;;;24.20;99.90;;;;;;5056912;28;20280;-79
2023/01/01 07:43:46;;;;;;;7.95;1.70;;;24.10;99.90;;;;;;5052519;28;20232;-77
2023/01/01 07:46:20;;;;;;;7.45;1.85;;;24.20;99.90;;;;;;5069310;22;20328;-79
2023/01/01 07:48:52;;;;;;;8.60;1.90;;;24.20;99.90;;;;;;5056145;28;20201;-78
2023/01/01 07:51:25;;;;;;;7.55;1.75;;;24.20;99.90;;;;;;5056328;28;20287;-78
2023/01/01 07:53:56;;;;;;;9.40;1.77;;;24.20;99.90;;;;;;5056275;28;20190;-78
2023/01/01 07:56:26;;;;;;;8.25;1.88;;;24.10;99.90;;;;;;5056141;28;20200;-78
2023/01/01 07:58:57;;;;;;;11.18;1.65;;;24.00;99.90;;;;;;5055971;28;20193;-78
2023/01/01 08:01:28;;;;;;;8.98;1.95;;;23.90;99.90;;;;;;5056120;28;20194;-76
2023/01/01 08:03:59;;;;;;;10.20;1.70;;;23.90;99.90;;;;;;5056092;28;20193;-78
2023/01/01 08:06:31;;;;;;;9.95;1.95;;;23.90;99.90;;;;;;5055585;28;20284;-77
2023/01/01 08:09:02;;;;;;;9.13;1.90;;;23.90;99.90;;;;;;5055910;28;20198;-77
2023/01/01 08:11:34;;;;;;;5.65;1.65;;;23.90;99.90;;;;;;5055178;28;20196;-77
2023/01/01 08:14:05;;;;;;;10.00;1.70;;;23.90;99.90;;;;;;5055665;28;20763;-77
2023/01/01 08:16:36;;;;;;;6.43;1.80;;;23.90;99.90;;;;;;5055607;28;20193;-79
2023/01/01 08:19:07;;;;;;;10.60;1.85;;;23.80;99.90;;;;;;5056142;28;20285;-77
2023/01/01 08:21:39;;;;;;;7.85;1.70;;;23.80;99.90;;;;;;5055732;28;20197;-77
2023/01/01 08:24:10;;;;;;;11.15;1.90;;;23.70;99.90;;;;;;5055669;28;20221;-78
2023/01/01 08:26:42;;;;;;;9.48;1.73;;;23.70;99.90;;;;;;5055907;28;20273;-79
2023/01/01 08:29:14;;;;;;;9.45;1.70;;;23.60;99.90;;;;;;5038116;28;20208;-79
2023/01/01 08:31:45;;;;;;;7.35;1.90;;;23.60;99.90;;;;;;5055653;28;20557;-80
2023/01/01 08:34:16;;;;;;;11.40;2.05;;;23.50;99.90;;;;;;5055421;28;20205;-80
2023/01/01 08:36:48;;;;;;;8.35;1.90;;;23.40;99.90;;;;;;5055407;28;20192;-79
2023/01/01 08:39:19;;;;;;;12.98;1.70;;;23.30;99.90;;;;;;5055426;28;20190;-79
2023/01/01 08:41:50;;;;;;;8.30;1.88;;;23.30;99.90;;;;;;5055388;28;20731;-78
2023/01/01 08:44:21;;;;;;;9.68;2.05;;;23.30;99.90;;;;;;5055133;28;20223;-78
2023/01/01 08:46:53;;;;;;;6.20;1.90;;;23.30;99.90;;;;;;5038061;28;20246;-80
2023/01/01 08:49:24;;;;;;;7.50;1.85;;;23.20;99.90;;;;;;5031954;28;20297;-78
2023/01/01 08:51:57;;;;;;;11.40;2.33;;;23.20;99.90;;;;;;5035298;28;20253;-77
2023/01/01 08:54:27;;;;;;;10.93;1.90;;;23.10;99.90;;;;;;5027911;28;20280;-80
2023/01/01 08:56:58;;;;;;;5.07;1.60;;;23.10;99.90;;;;;;5021857;28;20195;-79
2023/01/01 08:59:29;;;;;;;6.93;2.00;;;23.10;99.90;;;;;;5021118;28;20198;-78
2023/01/01 09:02:00;;;;;;;11.68;2.05;;;23.00;99.90;;;;;;5025745;28;20256;-78
2023/01/01 09:04:31;;;;;;;10.13;2.00;;;23.00;99.90;;;;;;5024762;28;20201;-80
2023/01/01 09:07:04;;;;;;;12.07;2.42;;;23.00;99.90;;;;;;5034400;28;20194;-78
2023/01/01 09:09:34;;;;;;;6.00;2.15;;;23.00;99.90;;;;;;5028914;28;20297;-79
2023/01/01 09:12:08;;;;;;;9.77;2.20;;;22.90;99.90;;;;;;5030701;28;20198;-78
2023/01/01 09:14:39;;;;;;;7.30;1.92;;;22.90;99.90;;;;;;5021951;28;20202;-78
2023/01/01 09:17:09;;;;;;;10.80;2.00;;;22.90;99.90;;;;;;5020941;28;20198;-79
2023/01/01 09:19:40;;;;;;;7.95;1.75;;;22.90;99.90;;;;;;5028502;28;20203;-78
2023/01/01 09:22:14;;;;;;;14.38;1.98;;;22.90;99.90;;;;;;5030092;28;20202;-78
2023/01/01 09:24:45;;;;;;;7.13;1.83;;;22.90;99.90;;;;;;5030343;28;20281;-78
2023/01/01 09:27:16;;;;;;;8.05;1.85;;;22.90;99.90;;;;;;5014181;28;20190;-79
2023/01/01 09:29:47;;;;;;;9.82;2.15;;;22.80;99.90;;;;;;5015082;28;20719;-78
2023/01/01 09:32:17;;;;;;;9.60;2.15;;;22.80;99.90;;;;;;5029154;28;20206;-78
2023/01/01 09:34:49;;;;;;;14.13;2.28;;;22.80;99.90;;;;;;5032909;28;20194;-78
2023/01/01 09:37:22;;;;;;;7.80;1.92;;;22.80;99.90;;;;;;5024678;28;20195;-78
2023/01/01 09:39:53;;;;;;;6.53;1.65;;;22.80;99.90;;;;;;5027203;28;20333;-78
2023/01/01 09:42:34;;;;;;;7.75;1.77;;;22.80;99.90;;;;;;5032836;28;20194;-79
2023/01/01 09:45:24;;;;;;;7.95;1.83;;;22.80;99.90;;;;;;5032565;28;20368;-80
2023/01/01 09:47:58;;;;;;;6.60;1.80;;;22.70;99.90;;;;;;5014396;28;20205;-79
2023/01/01 09:50:35;;;;;;;7.75;2.30;;;22.70;99.90;;;;;;5015969;28;20215;-78
2023/01/01 09:53:14;;;;;;;11.82;2.30;;;22.70;99.90;;;;;;5031005;28;20204;-78
2023/01/01 09:55:50;;;;;;;11.77;2.10;;;22.70;99.90;;;;;;5017564;28;20191;-80
2023/01/01 09:58:24;;;;;;;11.38;2.40;;;22.70;99.90;;;;;;5025821;28;20190;-79
2023/01/01 10:00:57;;;;;;;8.23;1.90;;;22.70;99.90;;;;;;5023648;28;20199;-79
2023/01/01 10:03:42;;;;;;;6.13;1.80;;;22.60;99.90;;;;;;5027094;28;20200;-79
2023/01/01 10:06:22;;;;;;;11.60;1.80;;;22.60;99.90;;;;;;5020721;28;20194;-79
2023/01/01 10:09:08;;;;;;;5.45;1.63;;;22.60;99.90;;;;;;5033848;28;20277;-78
2023/01/01 10:11:48;;;;;;;8.38;1.92;;;22.60;99.90;;;;;;5032811;28;20308;-78
2023/01/01 10:14:23;;;;;;;7.43;1.80;;;22.60;99.90;;;;;;5022773;28;20204;-78
2023/01/01 10:16:57;;;;;;;11.98;2.00;;;22.60;99.90;;;;;;5033646;28;20611;-79
2023/01/01 10:19:34;;;;;;;7.05;1.80;;;22.50;99.90;;;;;;5026359;28;20209;-79
2023/01/01 10:22:09;;;;;;;11.10;2.10;;;22.50;99.90;;;;;;5031869;28;20194;-79
2023/01/01 10:24:50;;;;;;;9.57;1.90;;;22.50;99.90;;;;;;5013627;28;20310;-79
2023/01/01 10:27:34;;;;;;;10.55;2.47;;;22.50;99.90;;;;;;5013805;28;20563;-78
2023/01/01 10:30:13;;;;;;;7.85;1.83;;;22.50;99.90;;;;;;5031650;28;20221;-80
2023/01/01 10:32:44;;;;;;;7.07;2.03;;;22.50;99.90;;;;;;5026463;28;20203;-78
2023/01/01 10:35:17;;;;;;;10.15;1.65;;;22.50;99.90;;;;;;5013491;28;20197;-79
2023/01/01 10:37:48;;;;;;;10.55;1.88;;;22.40;99.90;;;;;;5013577;28;20664;-79
2023/01/01 10:40:22;;;;;;;7.82;1.80;;;22.40;99.90;;;;;;5014334;28;20191;-78
2023/01/01 10:42:55;;;;;;;7.72;2.10;;;22.40;99.90;;;;;;5018610;28;20225;-79
2023/01/01 10:45:34;;;;;;;16.13;2.00;;;22.40;99.90;;;;;;5027137;28;20309;-79
2023/01/01 10:48:21;;;;;;;8.63;1.98;;;22.40;99.90;;;;;;5031806;28;20276;-78
2023/01/01 10:50:54;;;;;;;10.40;1.60;;;22.40;99.90;;;;;;5026648;28;20685;-78
2023/01/01 10:53:31;;;;;;;5.05;1.55;;;22.40;99.90;;;;;;5017425;28;20194;-78
2023/01/01 10:56:12;;;;;;;8.02;1.60;;;22.40;99.90;;;;;;5025085;28;20197;-79
2023/01/01 10:58:47;;;;;;;8.88;1.63;;;22.40;99.90;;;;;;5024472;28;20210;-77
2023/01/01 11:01:25;;;;;;;9.73;2.05;;;22.40;99.90;;;;;;5029713;28;20675;-79
2023/01/01 11:04:01;;;;;;;8.77;1.80;;;22.40;99.90;;;;;;5023106;28;20273;-78
2023/01/01 11:06:34;;;;;;;11.45;2.00;;;22.40;99.90;;;;;;5028984;28;20194;-79
2023/01/01 11:09:18;;;;;;;5.85;1.63;;;22.40;99.90;;;;;;5029252;28;20295;-79
2023/01/01 11:11:57;;;;;;;11.23;2.10;;;22.40;99.90;;;;;;5013179;28;20218;-79
2023/01/01 11:14:31;;;;;;;9.15;1.98;;;22.30;99.90;;;;;;5027874;28;20280;-80
2023/01/01 11:17:02;;;;;;;9.23;2.08;;;22.30;99.90;;;;;;5019202;28;20195;-79
2023/01/01 11:19:35;;;;;;;9.85;1.90;;;22.30;99.90;;;;;;5014293;28;20556;-78
2023/01/01 11:22:07;;;;;;;9.60;1.85;;;22.30;99.90;;;;;;5023286;28;20195;-80
2023/01/01 11:24:42;;;;;;;8.23;2.00;;;22.30;99.90;;;;;;5013119;28;20282;-79
2023/01/01 11:27:23;;;;;;;11.50;1.95;;;22.20;99.90;;;;;;5026060;28;20209;-79
2023/01/01 11:30:14;;;;;;;6.60;1.75;;;22.30;99.90;;;;;;5029370;28;20275;-80
2023/01/01 11:32:45;;;;;;;13.05;1.92;;;22.20;99.90;;;;;;5021679;28;20275;-80
2023/01/01 11:35:22;;;;;;;9.82;2.08;;;22.20;99.90;;;;;;5013650;28;20282;-79
2023/01/01 11:37:54;;;;;;;7.28;1.77;;;22.30;99.90;;;;;;5032574;28;20190;-80
2023/01/01 11:40:26;;;;;;;7.35;1.95;;;22.30;99.90;;;;;;5032873;28;20656;-79
2023/01/01 11:43:01;;;;;;;9.52;1.90;;;22.30;99.90;;;;;;5030289;28;20290;-79
2023/01/01 11:45:35;;;;;;;9.30;1.88;;;22.30;99.90;;;;;;5021302;28;20292;-79
2023/01/01 11:48:12;;;;;;;7.95;2.03;;;22.30;99.90;;;;;;5027803;28;20197;-79
2023/01/01 11:50:50;;;;;;;7.10;1.70;;;22.30;99.90;;;;;;5036342;28;20222;-79
2023/01/01 11:53:28;;;;;;;15.05;2.78;;;22.40;99.90;;;;;;5054350;28;20201;-79
2023/01/01 11:56:07;;;;;;;8.77;1.77;;;22.40;99.90;;;;;;5056234;28;20193;-78
2023/01/01 11:58:50;;;;;;;8.80;1.73;;;22.40;99.90;;;;;;5053112;28;20272;-80
2023/01/01 12:01:27;;;;;;;6.43;1.83;;;22.40;99.90;;;;;;5033090;28;20728;-79
2023/01/01 12:04:03;;;;;;;7.25;1.83;;;22.40;99.90;;;;;;5036185;28;20273;-77
2023/01/01 12:06:38;;;;;;;9.57;1.80;;;22.40;99.90;;;;;;5035866;28;20289;-80
2023/01/01 12:09:15;;;;;;;11.07;2.42;;;22.40;99.90;;;;;;5035789;28;20282;-77
2023/01/01 12:11:49;;;;;;;9.90;1.90;;;22.40;99.90;;;;;;5035872;28;20214;-79
2023/01/01 12:14:27;;;;;;;8.25;1.92;;;22.40;99.90;;;;;;5035608;28;20230;-79
2023/01/01 12:17:01;;;;;;;9.30;1.73;;;22.40;99.90;;;;;;5033314;28;20313;-79
2023/01/01 12:19:37;;;;;;;7.20;1.67;;;22.30;99.90;;;;;;5016208;28;20200;-79
2023/01/01 12:22:16;;;;;;;6.82;1.60;;;22.40;99.90;;;;;;5015914;28;20273;-78
2023/01/01 12:24:48;;;;;;;6.53;1.67;;;22.40;99.90;;;;;;5023138;28;20209;-78
2023/01/01 12:27:26;;;;;;;8.88;1.75;;;22.30;99.90;;;;;;5027792;28;20193;-80
2023/01/01 12:30:21;;;;;;;8.80;1.60;;;22.30;99.90;;;;;;5020649;28;20194;-78
2023/01/01 12:33:22;;;;;;;11.38;2.00;;;22.30;99.90;;;;;;5015846;28;20207;-80
2023/01/01 12:36:06;;;;;;;8.98;1.77;;;22.30;99.90;;;;;;5024134;28;20302;-80
2023/01/01 12:39:17;;;;;;;7.68;1.70;;;22.30;99.90;;;;;;5035157;28;20659;-79
2023/01/01 12:41:59;;;;;;;7.28;1.80;;;22.30;99.90;;;;;;5005543;28;20206;-79
2023/01/01 12:44:40;;;;;;;7.32;1.67;;;22.30;99.90;;;;;;5035337;28;20273;-78
2023/01/01 12:47:25;;;;;;;7.85;1.65;;;22.30;99.90;;;;;;5030330;28;20242;-78
2023/01/01 12:50:17;;;;;;;6.57;1.40;;;22.30;99.90;;;;;;5015361;28;20286;-78
2023/01/01 12:53:01;;;;;;;7.82;1.75;;;22.30;99.90;;;;;;5015521;28;20564;-78
2023/01/01 12:55:57;;;;;;;8.35;1.98;;;22.30;99.90;;;;;;5027627;28;20289;-79
2023/01/01 12:58:32;;;;;;;8.43;1.83;;;22.30;99.90;;;;;;5031167;28;20285;-78
2023/01/01 13:01:08;;;;;;;9.93;1.70;;;22.20;99.90;;;;;;5022346;28;20724;-78
2023/01/01 13:03:50;;;;;;;6.80;1.58;;;22.20;99.90;;;;;;5033551;28;20285;-78
2023/01/01 13:06:23;;;;;;;5.25;1.50;;;22.20;99.90;;;;;;5033015;28;20198;-79
2023/01/01 13:08:58;;;;;;;9.02;1.77;;;22.20;99.90;;;;;;5025210;28;20197;-79
2023/01/01 13:11:30;;;;;;;6.10;1.80;;;22.20;99.90;;;;;;5025933;28;20214;-78
2023/01/01 13:14:00;;;;;;;5.05;1.42;;;22.20;99.90;;;;;;5015226;28;20199;-78
2023/01/01 13:16:40;;;;;;;9.02;1.80;;;22.20;99.90;;;;;;5015013;28;20286;-79
2023/01/01 13:19:33;;;;;;;6.28;1.60;;;22.20;99.90;;;;;;5014735;28;20238;-78
2023/01/01 13:22:42;;;;;;;6.60;1.65;;;22.20;99.90;;;;;;5029625;28;20306;-77
2023/01/01 13:25:24;;;;;;;4.82;1.52;;;22.20;99.90;;;;;;5015318;28;20653;-79
2023/01/01 13:28:13;;;;;;;8.32;1.70;;;22.20;99.90;;;;;;5015575;28;20205;-78